createdAt,value
2023-01-17T00:01:48.753Z,96402.03
2023-01-17T00:04:34.098Z,96410.88
2023-01-17T00:07:19.442Z,96407.53
2023-01-17T00:09:53.959Z,96420.69
2023-01-17T00:12:22.504Z,96420.41
2023-01-17T00:14:50.051Z,96426.56
2023-01-17T00:17:17.525Z,96416.97
2023-01-17T00:20:02.485Z,96424.16
2023-01-17T00:22:49.237Z,96427.31
2023-01-17T00:25:37.434Z,96420.34
2023-01-17T00:28:05.344Z,96433.41
2023-01-17T00:30:31.780Z,96424.53
2023-01-17T00:32:58.426Z,96435.09
2023-01-17T00:35:26.519Z,96432.06
2023-01-17T00:38:01.112Z,96444.41
2023-01-17T00:40:28.874Z,96451.41
2023-01-17T00:43:14.203Z,96456.63
2023-01-17T00:46:01.616Z,96460.69
2023-01-17T00:48:46.723Z,96458.31
2023-01-17T00:51:31.958Z,96468.69
2023-01-17T00:54:18.971Z,96473.50
2023-01-17T00:57:05.786Z,96481.56
2023-01-17T00:59:50.943Z,96480.31
2023-01-17T01:02:36.372Z,96487.16
2023-01-17T01:05:21.835Z,96484.19
2023-01-17T01:08:07.122Z,96483.59
2023-01-17T01:10:52.489Z,96482.09
2023-01-17T01:13:41.580Z,96495.81
2023-01-17T01:16:26.826Z,96498.34
2023-01-17T01:19:12.280Z,96514.78
2023-01-17T01:21:57.665Z,96512.59
2023-01-17T01:24:42.995Z,96517.81
2023-01-17T01:27:28.336Z,96514.56
2023-01-17T01:30:14.924Z,96530.28
2023-01-17T01:33:00.353Z,96536.56
2023-01-17T01:35:27.919Z,96549.50
2023-01-17T01:37:55.568Z,96560.00
2023-01-17T01:40:23.332Z,96562.97
2023-01-17T01:42:52.759Z,96561.25
2023-01-17T01:45:23.956Z,96582.19
2023-01-17T01:47:54.795Z,96582.84
2023-01-17T01:50:22.714Z,96598.09
2023-01-17T01:52:55.251Z,96588.31
2023-01-17T01:55:26.960Z,96604.84
2023-01-17T01:57:58.441Z,96600.28
2023-01-17T02:00:31.064Z,96601.53
2023-01-17T02:03:03.363Z,96610.50
2023-01-17T02:05:32.764Z,96605.28
2023-01-17T02:08:04.019Z,96611.94
2023-01-17T02:10:33.422Z,96608.75
2023-01-17T02:13:01.436Z,96613.75
2023-01-17T02:15:36.961Z,96616.06
2023-01-17T02:18:16.998Z,96625.63
2023-01-17T02:21:04.492Z,96634.69
2023-01-17T02:23:58.726Z,96615.56
2023-01-17T02:26:42.147Z,96622.03
2023-01-17T02:29:58.672Z,96647.97
2023-01-17T02:32:37.654Z,96640.22
2023-01-17T02:35:13.570Z,96645.88
2023-01-17T02:37:51.444Z,96652.81
2023-01-17T02:40:24.331Z,96648.41
2023-01-17T02:42:56.504Z,96651.66
2023-01-17T02:45:24.194Z,96647.09
2023-01-17T02:47:53.005Z,96652.69
2023-01-17T02:50:23.492Z,96653.56
2023-01-17T02:53:01.426Z,96666.94
2023-01-17T02:55:41.575Z,96691.44
2023-01-17T02:58:20.371Z,96707.69
2023-01-17T03:00:58.802Z,96712.19
2023-01-17T03:03:34.328Z,96714.69
2023-01-17T03:06:07.718Z,96702.66
2023-01-17T03:08:35.667Z,96739.44
2023-01-17T03:11:03.162Z,96742.16
2023-01-17T03:13:30.961Z,96720.50
2023-01-17T03:15:58.518Z,96745.44
2023-01-17T03:18:26.024Z,96744.50
2023-01-17T03:20:54.838Z,96747.13
2023-01-17T03:23:22.315Z,96751.63
2023-01-17T03:25:49.800Z,96758.09
2023-01-17T03:28:17.513Z,96756.13
2023-01-17T03:30:45.089Z,96754.34
2023-01-17T03:33:12.682Z,96755.09
2023-01-17T03:35:40.186Z,96774.66
2023-01-17T03:38:08.984Z,96762.09
2023-01-17T03:40:36.476Z,96758.00
2023-01-17T03:43:04.073Z,96768.84
2023-01-17T03:45:31.587Z,96771.47
2023-01-17T03:47:59.755Z,96777.84
2023-01-17T03:50:27.374Z,96783.47
2023-01-17T03:52:54.862Z,96791.72
2023-01-17T03:55:23.885Z,96792.66
2023-01-17T03:57:51.435Z,96805.66
2023-01-17T04:00:20.714Z,96802.22
2023-01-17T04:02:48.244Z,96807.47
2023-01-17T04:05:16.034Z,96814.38
2023-01-17T04:07:43.729Z,96817.00
2023-01-17T04:10:11.657Z,96823.72
2023-01-17T04:12:41.500Z,96828.50
2023-01-17T04:15:09.698Z,96824.59
2023-01-17T04:17:37.210Z,96821.63
2023-01-17T04:20:05.541Z,96823.25
2023-01-17T04:22:33.001Z,96817.28
2023-01-17T04:25:00.941Z,96823.84
2023-01-17T04:27:28.469Z,96822.47
2023-01-17T04:29:57.288Z,96813.44
2023-01-17T04:32:24.741Z,96812.97
2023-01-17T04:34:52.274Z,96813.41
2023-01-17T04:37:20.096Z,96817.78
2023-01-17T04:39:47.563Z,96821.19
2023-01-17T04:42:15.050Z,96815.28
2023-01-17T04:44:42.578Z,96827.97
2023-01-17T04:47:11.375Z,96824.19
2023-01-17T04:49:38.843Z,96823.16
2023-01-17T04:52:06.444Z,96836.00
2023-01-17T04:54:33.968Z,96836.53
2023-01-17T04:57:01.449Z,96831.03
2023-01-17T04:59:28.954Z,96828.91
2023-01-17T05:01:56.452Z,96822.84
2023-01-17T05:04:25.346Z,96819.34
2023-01-17T05:06:52.827Z,96836.03
2023-01-17T05:09:20.295Z,96837.31
2023-01-17T05:11:47.778Z,96834.41
2023-01-17T05:14:15.276Z,96848.13
2023-01-17T05:16:42.953Z,96851.72
2023-01-17T05:19:10.530Z,96852.25
2023-01-17T05:21:39.374Z,96856.94
2023-01-17T05:24:07.985Z,96846.63
2023-01-17T05:26:35.501Z,96853.13
2023-01-17T05:29:02.986Z,96858.66
2023-01-17T05:31:30.470Z,96862.94
2023-01-17T05:33:57.963Z,96860.63
2023-01-17T05:36:25.474Z,96868.50
2023-01-17T05:38:54.282Z,96877.69
2023-01-17T05:41:22.004Z,96875.41
2023-01-17T05:43:49.488Z,96883.00
2023-01-17T05:46:17.968Z,96875.13
2023-01-17T05:48:45.586Z,96888.03
2023-01-17T05:51:13.087Z,96890.91
2023-01-17T05:53:40.553Z,96889.38
2023-01-17T05:56:09.429Z,96893.47
2023-01-17T05:58:36.901Z,96894.66
2023-01-17T06:01:04.464Z,96903.19
2023-01-17T06:03:31.976Z,96906.06
2023-01-17T06:05:59.550Z,96904.13
2023-01-17T06:08:27.234Z,96910.09
2023-01-17T06:10:54.715Z,96924.66
2023-01-17T06:13:23.556Z,96923.84
2023-01-17T06:15:51.126Z,96918.53
2023-01-17T06:18:19.147Z,96927.47
2023-01-17T06:20:46.788Z,96925.28
2023-01-17T06:23:15.659Z,96918.56
2023-01-17T06:25:44.746Z,96933.28
2023-01-17T06:28:13.306Z,96930.41
2023-01-17T06:30:43.741Z,96929.47
2023-01-17T06:33:11.727Z,96931.41
2023-01-17T06:35:40.782Z,96928.38
2023-01-17T06:38:09.885Z,96929.94
2023-01-17T06:40:37.403Z,96936.63
2023-01-17T06:43:05.667Z,96940.28
2023-01-17T06:45:35.556Z,96940.09
2023-01-17T06:48:05.663Z,96938.50
2023-01-17T06:50:34.733Z,96945.81
2023-01-17T06:53:04.474Z,96950.72
2023-01-17T06:55:34.248Z,96955.44
2023-01-17T06:58:02.679Z,96951.59
2023-01-17T07:00:40.380Z,96953.81
2023-01-17T07:03:18.274Z,96967.50
2023-01-17T07:05:45.779Z,96964.56
2023-01-17T07:08:13.332Z,96959.84
2023-01-17T07:10:40.883Z,96957.81
2023-01-17T07:13:08.436Z,96955.91
2023-01-17T07:15:35.907Z,96956.19
2023-01-17T07:18:03.925Z,96960.13
2023-01-17T07:20:33.004Z,96964.19
2023-01-17T07:23:00.881Z,96965.84
2023-01-17T07:25:34.339Z,96972.03
2023-01-17T07:28:01.837Z,96966.97
2023-01-17T07:30:32.581Z,96972.09
2023-01-17T07:33:03.093Z,96975.28
2023-01-17T07:35:30.580Z,96975.84
2023-01-17T07:37:59.571Z,96970.19
2023-01-17T07:40:27.169Z,96973.13
2023-01-17T07:42:54.654Z,96985.31
2023-01-17T07:45:22.168Z,96976.19
2023-01-17T07:47:50.152Z,96989.16
2023-01-17T07:50:17.775Z,96980.72
2023-01-17T07:52:50.423Z,96981.97
2023-01-17T07:55:19.405Z,96981.16
2023-01-17T07:57:50.239Z,96982.72
2023-01-17T08:00:18.896Z,96975.28
2023-01-17T08:02:46.367Z,96983.47
2023-01-17T08:05:14.043Z,96977.69
2023-01-17T08:07:41.532Z,96987.41
2023-01-17T08:10:13.041Z,96980.22
2023-01-17T08:12:41.911Z,96978.28
2023-01-17T08:15:11.101Z,96986.25
2023-01-17T08:17:38.595Z,96978.44
2023-01-17T08:20:07.063Z,96983.41
2023-01-17T08:22:34.542Z,96982.66
2023-01-17T08:25:02.024Z,96979.69
2023-01-17T08:27:30.286Z,96977.81
2023-01-17T08:29:59.142Z,96981.03
2023-01-17T08:32:26.627Z,96973.44
2023-01-17T08:34:56.421Z,96974.53
2023-01-17T08:37:24.309Z,96977.16
2023-01-17T08:39:51.825Z,96981.50
2023-01-17T08:42:19.329Z,96989.09
2023-01-17T08:44:46.901Z,96984.22
2023-01-17T08:47:15.724Z,96992.66
2023-01-17T08:49:43.888Z,96991.94
2023-01-17T08:52:13.031Z,96993.94
2023-01-17T08:54:40.522Z,96998.25
2023-01-17T08:57:07.978Z,96993.09
2023-01-17T08:59:35.645Z,96997.72
2023-01-17T09:02:06.626Z,97004.97
2023-01-17T09:04:36.354Z,97012.06
2023-01-17T09:07:07.348Z,97002.69
2023-01-17T09:09:34.838Z,97007.00
2023-01-17T09:12:02.433Z,96997.31
2023-01-17T09:14:29.895Z,96994.47
2023-01-17T09:16:57.576Z,96989.50
2023-01-17T09:19:25.080Z,96988.34
2023-01-17T09:21:53.961Z,96994.78
2023-01-17T09:24:21.449Z,96999.00
2023-01-17T09:26:49.029Z,97008.59
2023-01-17T09:29:17.821Z,97010.16
2023-01-17T09:31:47.024Z,97015.34
2023-01-17T09:34:15.133Z,97010.16
2023-01-17T09:36:42.923Z,97011.56
2023-01-17T09:39:14.337Z,97025.25
2023-01-17T09:41:48.635Z,97022.19
2023-01-17T09:44:25.720Z,97026.63
2023-01-17T09:46:55.249Z,97026.09
2023-01-17T09:49:33.899Z,97016.50
2023-01-17T09:52:02.229Z,97019.78
2023-01-17T09:54:36.305Z,97023.03
2023-01-17T09:57:14.192Z,97009.97
2023-01-17T10:00:02.973Z,97020.72
2023-01-17T10:02:56.871Z,97025.88
2023-01-17T10:05:36.688Z,97020.31
2023-01-17T10:08:15.917Z,97017.88
2023-01-17T10:10:55.008Z,97028.22
2023-01-17T10:13:38.953Z,97017.13
2023-01-17T10:16:21.368Z,97025.78
2023-01-17T10:19:07.268Z,97028.53
2023-01-17T10:21:41.777Z,97029.41
2023-01-17T10:24:25.527Z,97031.81
2023-01-17T10:26:57.074Z,97035.50
2023-01-17T10:29:29.925Z,97033.81
2023-01-17T10:32:00.153Z,97033.16
2023-01-17T10:34:33.889Z,97024.81
2023-01-17T10:37:06.836Z,97031.03
2023-01-17T10:39:36.038Z,97027.44
2023-01-17T10:42:14.526Z,97019.13
2023-01-17T10:44:48.742Z,97018.19
2023-01-17T10:47:21.500Z,97019.41
2023-01-17T10:49:51.896Z,97029.75
2023-01-17T10:52:29.826Z,97022.34
2023-01-17T10:55:16.899Z,97018.94
2023-01-17T10:57:47.303Z,97025.09
2023-01-17T11:00:41.696Z,97019.19
2023-01-17T11:03:11.828Z,97020.16
2023-01-17T11:05:40.626Z,97012.66
2023-01-17T11:08:09.902Z,97006.94
2023-01-17T11:10:40.836Z,97012.22
2023-01-17T11:13:24.644Z,97006.63
2023-01-17T11:15:57.400Z,97014.16
2023-01-17T11:18:28.416Z,97013.41
2023-01-17T11:21:12.685Z,97015.84
2023-01-17T11:23:43.108Z,97013.59
2023-01-17T11:26:21.046Z,97006.00
2023-01-17T11:28:53.030Z,97007.78
2023-01-17T11:31:27.461Z,97008.38
2023-01-17T11:34:14.961Z,97008.56
2023-01-17T11:36:42.763Z,97011.09
2023-01-17T11:39:27.466Z,97009.66
2023-01-17T11:41:55.566Z,97006.69
2023-01-17T11:44:29.247Z,97014.72
2023-01-17T11:47:19.114Z,97007.41
2023-01-17T11:49:48.067Z,97009.94
2023-01-17T11:52:23.333Z,97006.88
2023-01-17T11:54:53.343Z,96998.31
2023-01-17T11:57:24.981Z,96999.78
2023-01-17T12:00:01.091Z,97001.13
2023-01-17T12:02:41.097Z,96993.03
2023-01-17T12:05:21.548Z,97000.53
2023-01-17T12:07:56.459Z,96998.69
2023-01-17T12:10:29.334Z,96991.59
2023-01-17T12:13:23.401Z,96982.84
2023-01-17T12:16:22.663Z,96978.59
2023-01-17T12:18:59.014Z,96975.78
2023-01-17T12:21:35.171Z,96974.81
2023-01-17T12:24:31.319Z,96975.78
2023-01-17T12:27:08.933Z,96974.09
2023-01-17T12:29:47.547Z,96980.19
2023-01-17T12:32:36.742Z,96982.47
2023-01-17T12:35:13.665Z,96979.50
2023-01-17T12:37:44.612Z,96980.69
2023-01-17T12:40:22.539Z,96974.03
2023-01-17T12:42:55.634Z,96975.69
2023-01-17T12:45:27.132Z,96974.03
2023-01-17T12:48:01.509Z,96974.09
2023-01-17T12:50:35.031Z,96979.75
2023-01-17T12:53:10.856Z,96979.56
2023-01-17T12:55:42.745Z,96983.16
2023-01-17T12:58:16.856Z,96980.84
2023-01-17T13:00:47.707Z,96982.28
2023-01-17T13:03:28.117Z,96976.25
2023-01-17T13:05:58.470Z,96977.25
2023-01-17T13:08:31.321Z,96979.88
2023-01-17T13:11:04.447Z,96975.09
2023-01-17T13:13:35.544Z,96973.81
2023-01-17T13:16:08.808Z,96977.06
2023-01-17T13:18:42.789Z,96982.03
2023-01-17T13:21:27.671Z,96981.53
2023-01-17T13:24:11.631Z,96981.72
2023-01-17T13:26:53.871Z,96980.91
2023-01-17T13:29:29.439Z,96982.19
2023-01-17T13:32:04.624Z,96982.41
2023-01-17T13:35:01.693Z,96984.44
2023-01-17T13:37:42.442Z,96974.47
2023-01-17T13:40:29.618Z,96979.34
2023-01-17T13:43:00.617Z,96981.88
2023-01-17T13:45:31.402Z,96975.75
2023-01-17T13:48:26.246Z,96973.59
2023-01-17T13:50:56.472Z,96975.78
2023-01-17T13:53:59.808Z,96979.75
2023-01-17T13:56:33.608Z,96982.97
2023-01-17T13:59:03.868Z,96985.94
2023-01-17T14:01:51.882Z,96987.97
2023-01-17T14:04:19.805Z,96991.47
2023-01-17T14:06:55.398Z,96985.28
2023-01-17T14:09:26.957Z,96989.41
2023-01-17T14:12:01.096Z,96986.31
2023-01-17T14:14:48.493Z,96989.66
2023-01-17T14:17:57.531Z,96995.50
2023-01-17T14:20:49.716Z,96989.50
2023-01-17T14:23:26.900Z,96992.00
2023-01-17T14:25:55.849Z,96993.66
2023-01-17T14:28:30.233Z,96990.63
2023-01-17T14:31:00.436Z,96989.47
2023-01-17T14:33:30.782Z,96990.56
2023-01-17T14:36:01.745Z,96990.78
2023-01-17T14:38:32.540Z,96993.88
2023-01-17T14:41:03.429Z,96995.97
2023-01-17T14:43:34.665Z,96996.94
2023-01-17T14:46:05.134Z,97003.28
2023-01-17T14:48:32.647Z,97002.22
2023-01-17T14:51:01.733Z,97005.97
2023-01-17T14:53:31.657Z,97008.41
2023-01-17T14:56:02.397Z,97004.88
2023-01-17T14:58:31.595Z,97006.56
2023-01-17T15:01:02.424Z,96998.75
2023-01-17T15:03:33.263Z,96995.03
2023-01-17T15:06:11.201Z,96995.16
2023-01-17T15:08:40.586Z,96996.94
2023-01-17T15:11:11.723Z,96994.59
2023-01-17T15:13:45.123Z,96997.81
2023-01-17T15:16:21.635Z,97002.28
2023-01-17T15:18:49.300Z,96999.34
2023-01-17T15:21:19.232Z,97005.19
2023-01-17T15:23:51.186Z,97004.47
2023-01-17T15:26:23.072Z,97000.69
2023-01-17T15:28:51.766Z,97007.44
2023-01-17T15:31:24.927Z,97013.34
2023-01-17T15:33:56.317Z,97013.47
2023-01-17T15:36:32.294Z,97007.09
2023-01-17T15:39:03.239Z,97011.03
2023-01-17T15:41:34.503Z,97005.22
2023-01-17T15:44:02.621Z,97012.88
2023-01-17T15:46:32.804Z,97016.38
2023-01-17T15:49:17.848Z,97020.16
2023-01-17T15:51:51.703Z,97015.16
2023-01-17T15:54:47.394Z,97012.31
2023-01-17T15:57:25.531Z,97009.88
2023-01-17T15:59:56.080Z,97017.44
2023-01-17T16:02:43.639Z,97021.66
2023-01-17T16:05:38.521Z,97022.75
2023-01-17T16:08:39.371Z,97017.16
2023-01-17T16:11:11.591Z,97021.78
2023-01-17T16:13:42.076Z,97020.91
2023-01-17T16:16:11.541Z,97020.91
2023-01-17T16:18:40.244Z,97025.75
2023-01-17T16:21:18.540Z,97024.91
2023-01-17T16:23:46.322Z,97022.47
2023-01-17T16:26:15.202Z,97022.75
2023-01-17T16:28:42.988Z,97022.75
2023-01-17T16:31:10.596Z,97023.88
2023-01-17T16:33:39.152Z,97030.75
2023-01-17T16:36:07.348Z,97028.97
2023-01-17T16:38:34.813Z,97029.38
2023-01-17T16:41:04.706Z,97037.25
2023-01-17T16:43:33.536Z,97038.19
2023-01-17T16:46:01.386Z,97041.38
2023-01-17T16:48:28.857Z,97049.56
2023-01-17T16:50:56.329Z,97058.22
2023-01-17T16:53:25.516Z,97065.00
2023-01-17T16:55:55.439Z,97065.50
2023-01-17T16:58:22.936Z,97069.88
2023-01-17T17:00:51.989Z,97066.41
2023-01-17T17:03:21.324Z,97076.00
2023-01-17T17:05:56.424Z,97076.63
2023-01-17T17:08:25.206Z,97073.28
2023-01-17T17:10:52.830Z,97073.00
2023-01-17T17:13:20.384Z,97068.38
2023-01-17T17:15:48.574Z,97076.19
2023-01-17T17:18:18.952Z,97072.31
2023-01-17T17:20:46.931Z,97077.22
2023-01-17T17:23:14.675Z,97074.19
2023-01-17T17:25:42.180Z,97081.81
2023-01-17T17:28:11.697Z,97075.72
2023-01-17T17:30:39.175Z,97081.06
2023-01-17T17:33:06.661Z,97089.25
2023-01-17T17:35:35.887Z,97083.03
2023-01-17T17:38:05.354Z,97089.16
2023-01-17T17:40:34.896Z,97084.81
2023-01-17T17:43:02.448Z,97085.09
2023-01-17T17:45:29.964Z,97092.81
2023-01-17T17:47:57.675Z,97086.41
2023-01-17T17:50:25.152Z,97084.72
2023-01-17T17:52:53.966Z,97091.00
2023-01-17T17:55:21.444Z,97100.03
2023-01-17T17:57:48.980Z,97102.47
2023-01-17T18:00:17.686Z,97098.63
2023-01-17T18:02:45.164Z,97099.28
2023-01-17T18:05:12.764Z,97108.47
2023-01-17T18:07:40.434Z,97109.69
2023-01-17T18:10:10.612Z,97123.88
2023-01-17T18:12:38.102Z,97118.06
2023-01-17T18:15:06.485Z,97117.31
2023-01-17T18:17:33.967Z,97118.03
2023-01-17T18:20:01.546Z,97118.41
2023-01-17T18:22:29.096Z,97120.00
2023-01-17T18:24:56.639Z,97127.88
2023-01-17T18:27:25.526Z,97124.59
2023-01-17T18:29:53.095Z,97127.16
2023-01-17T18:32:20.565Z,97134.09
2023-01-17T18:34:48.050Z,97133.16
2023-01-17T18:37:15.766Z,97132.69
2023-01-17T18:39:43.665Z,97135.88
2023-01-17T18:42:11.766Z,97137.31
2023-01-17T18:44:40.721Z,97145.88
2023-01-17T18:47:10.768Z,97145.66
2023-01-17T18:49:38.273Z,97153.66
2023-01-17T18:52:07.900Z,97154.38
2023-01-17T18:54:35.591Z,97151.47
2023-01-17T18:57:03.087Z,97153.81
2023-01-17T18:59:30.608Z,97153.25
2023-01-17T19:01:59.458Z,97156.28
2023-01-17T19:04:28.287Z,97157.75
2023-01-17T19:06:58.329Z,97163.19
2023-01-17T19:09:26.033Z,97155.97
2023-01-17T19:11:53.554Z,97165.91
2023-01-17T19:14:21.033Z,97168.94
2023-01-17T19:16:48.523Z,97168.56
2023-01-17T19:19:17.377Z,97162.72
2023-01-17T19:21:45.161Z,97163.00
2023-01-17T19:24:14.199Z,97154.00
2023-01-17T19:26:41.891Z,97160.16
2023-01-17T19:29:09.864Z,97162.16
2023-01-17T19:31:42.228Z,97178.41
2023-01-17T19:34:10.205Z,97173.50
2023-01-17T19:36:40.363Z,97169.28
2023-01-17T19:39:10.259Z,97170.31
2023-01-17T19:41:42.119Z,97174.16
2023-01-17T19:44:11.701Z,97183.81
2023-01-17T19:46:39.508Z,97180.34
2023-01-17T19:49:08.721Z,97186.44
2023-01-17T19:51:36.521Z,97185.78
2023-01-17T19:54:07.805Z,97186.72
2023-01-17T19:56:35.703Z,97174.78
2023-01-17T19:59:03.335Z,97188.94
2023-01-17T20:01:32.798Z,97202.97
2023-01-17T20:04:02.068Z,97200.97
2023-01-17T20:06:32.182Z,97198.78
2023-01-17T20:08:59.727Z,97199.38
2023-01-17T20:11:30.038Z,97192.53
2023-01-17T20:13:59.902Z,97199.47
2023-01-17T20:16:29.407Z,97201.59
2023-01-17T20:18:57.848Z,97202.78
2023-01-17T20:21:27.326Z,97211.25
2023-01-17T20:23:56.406Z,97211.84
2023-01-17T20:26:28.935Z,97215.00
2023-01-17T20:28:57.992Z,97216.84
2023-01-17T20:31:26.656Z,97210.81
2023-01-17T20:33:56.148Z,97220.06
2023-01-17T20:36:25.558Z,97220.41
2023-01-17T20:38:54.463Z,97224.66
2023-01-17T20:41:24.434Z,97222.44
2023-01-17T20:43:53.794Z,97230.47
2023-01-17T20:46:25.490Z,97231.09
2023-01-17T20:48:55.056Z,97225.91
2023-01-17T20:51:23.809Z,97232.63
2023-01-17T20:53:53.369Z,97235.81
2023-01-17T20:56:20.957Z,97234.31
2023-01-17T20:58:51.561Z,97232.28
2023-01-17T21:01:21.005Z,97235.31
2023-01-17T21:03:53.636Z,97238.72
2023-01-17T21:06:22.849Z,97244.56
2023-01-17T21:08:50.808Z,97248.03
2023-01-17T21:11:20.260Z,97249.22
2023-01-17T21:13:48.606Z,97250.16
2023-01-17T21:16:17.717Z,97245.50
2023-01-17T21:18:47.746Z,97249.06
2023-01-17T21:21:18.649Z,97256.00
2023-01-17T21:23:46.488Z,97257.88
2023-01-17T21:26:16.190Z,97257.09
2023-01-17T21:28:45.645Z,97260.00
2023-01-17T21:31:20.242Z,97251.94
2023-01-17T21:33:48.516Z,97255.66
2023-01-17T21:36:17.472Z,97253.47
2023-01-17T21:38:49.607Z,97267.09
2023-01-17T21:41:17.087Z,97262.44
2023-01-17T21:43:44.834Z,97255.66
2023-01-17T21:46:12.791Z,97257.84
2023-01-17T21:48:40.470Z,97256.06
2023-01-17T21:51:09.284Z,97267.31
2023-01-17T21:53:39.574Z,97268.00
2023-01-17T21:56:26.547Z,97265.31
2023-01-17T21:58:56.708Z,97267.09
2023-01-17T22:01:26.509Z,97269.78
2023-01-17T22:03:55.346Z,97269.13
2023-01-17T22:06:25.050Z,97272.91
2023-01-17T22:08:54.214Z,97277.13
2023-01-17T22:11:23.755Z,97271.56
2023-01-17T22:13:52.017Z,97274.19
2023-01-17T22:16:21.306Z,97277.13
2023-01-17T22:18:49.360Z,97280.72
2023-01-17T22:21:19.033Z,97288.31
2023-01-17T22:23:47.639Z,97288.19
2023-01-17T22:26:16.900Z,97284.13
2023-01-17T22:28:44.620Z,97291.91
2023-01-17T22:31:14.705Z,97285.69
2023-01-17T22:33:44.131Z,97288.00
2023-01-17T22:36:14.541Z,97291.41
2023-01-17T22:38:42.793Z,97294.03
2023-01-17T22:41:12.999Z,97286.16
2023-01-17T22:43:43.438Z,97289.69
2023-01-17T22:46:12.518Z,97288.31
2023-01-17T22:48:40.920Z,97302.41
2023-01-17T22:51:10.285Z,97300.16
2023-01-17T22:53:41.098Z,97299.09
2023-01-17T22:56:12.041Z,97294.22
2023-01-17T22:58:42.346Z,97289.34
2023-01-17T23:01:13.494Z,97295.59
2023-01-17T23:03:42.006Z,97289.16
2023-01-17T23:06:12.000Z,97294.72
2023-01-17T23:08:41.464Z,97297.81
2023-01-17T23:11:41.099Z,97291.69
2023-01-17T23:14:11.649Z,97286.56
2023-01-17T23:17:00.428Z,97285.34
2023-01-17T23:19:30.141Z,97290.75
2023-01-17T23:22:19.114Z,97297.44
2023-01-17T23:24:50.118Z,97295.19
2023-01-17T23:27:38.332Z,97289.19
2023-01-17T23:30:08.126Z,97293.53
2023-01-17T23:32:37.254Z,97289.47
2023-01-17T23:35:05.379Z,97292.88
2023-01-17T23:37:50.467Z,97286.75
2023-01-17T23:40:18.911Z,97292.03
2023-01-17T23:43:04.362Z,97281.16
2023-01-17T23:45:35.387Z,97293.25
2023-01-17T23:48:05.441Z,97290.41
2023-01-17T23:50:34.178Z,97294.56
2023-01-17T23:53:06.762Z,97292.34
2023-01-17T23:55:36.125Z,97292.94
2023-01-17T23:58:03.769Z,97292.78
